METAR Data
IDs: Format: Raw Decoded Include TAF

Data at: 2225 UTC 30 Jun 2022

METAR for:KAVP (Wilkes-Barre/Scranto, PA, US)
Text:KAVP 302154Z 24008KT 10SM FEW065 29/14 A3012 RMK AO2 SLP193 T02940139
Temperature: 29.4°C ( 85°F)
Dewpoint: 13.9°C ( 57°F) [RH = 39%]
Pressure (altimeter):30.12 inches Hg (1020.1 mb) [Sea level pressure: 1019.3 mb]
Winds:from the WSW (240 degrees) at 9 MPH (8 knots; 4.1 m/s)
Visibility:10 or more sm (16+ km)
Ceiling:at least 12,000 feet AGL
Clouds: few clouds at 6500 feet AGL

TAF for:KAVP (Wilkes-Barre/Scranto, PA, US) issued at 1720 UTC 30 Jun 2022
Text:KAVP 301720Z 3018/0118 25007KT P6SM FEW050
Forecast period:1800 UTC 30 June 2022 to 1200 UTC 01 July 2022
Forecast type:FROM: standard forecast or significant change
Winds:from the WSW (250 degrees) at 8 MPH (7 knots; 3.6 m/s)
Visibility:6 or more sm (10+ km)
Ceiling:at least 12,000 feet AGL
Clouds: few clouds at 5000 feet AGL
Text:FM011200 23006G13KT P6SM FEW250
Forecast period:1200 to 1800 UTC 01 July 2022
Forecast type:FROM: standard forecast or significant change
Winds:from the SW (230 degrees) at 7 MPH (6 knots; 3.1 m/s) gusting to 15 MPH (13 knots; 6.7 m/s)
Visibility:6 or more sm (10+ km)
Ceiling:at least 12,000 feet AGL
Clouds: few clouds at 25000 feet AGL